Time;durP1;ratioP1;P1;durP2;ratioP2;P2;SDS_P1;SDS_P2;PMS_P1;PMS_P2;Temp;Humidity;BMP_temperature;BMP_pressure;BME280_temperature;BME280_humidity;BME280_pressure;Samples;Min_cycle;Max_cycle;Signal;HPM_P1;HPM_P2
2022/11/25 00:02:09;;;;;;;9.40;2.07;;;;;10.90;100348.00;;;;10427707;28;20660;-76
2022/11/25 00:07:11;;;;;;;14.50;2.33;;;;;10.90;100349.00;;;;10427147;28;20220;-76
2022/11/25 00:12:13;;;;;;;10.93;2.30;;;;;10.90;100356.00;;;;10459735;28;20201;-76
2022/11/25 00:17:15;;;;;;;11.67;2.87;;;;;10.90;100355.00;;;;10493012;28;20212;-75
2022/11/25 00:22:17;;;;;;;8.57;2.47;;;;;10.90;100346.00;;;;10404998;28;20194;-76
2022/11/25 00:27:19;;;;;;;19.63;2.67;;;;;10.90;100351.00;;;;10423885;28;20660;-76
2022/11/25 00:32:21;;;;;;;10.57;2.13;;;;;10.60;100357.00;;;;10443190;28;20190;-76
2022/11/25 00:37:23;;;;;;;12.67;3.17;;;;;10.30;100365.00;;;;10440784;28;20580;-77
2022/11/25 00:47:45;;;;;;;3.90;1.47;;;;;9.90;100422.00;;;;10419398;28;20201;-77
2022/11/25 00:52:47;;;;;;;7.43;1.43;;;;;9.70;100429.00;;;;10402054;28;20221;-78
2022/11/25 00:57:49;;;;;;;4.23;1.10;;;;;9.30;100436.00;;;;10440356;28;20212;-78
2022/11/25 01:02:51;;;;;;;4.07;1.23;;;;;9.00;100436.00;;;;10442744;28;20232;-79
2022/11/25 01:07:53;;;;;;;1.87;0.80;;;;;8.90;100447.00;;;;10426063;28;20213;-79
2022/11/25 01:12:55;;;;;;;3.37;0.90;;;;;8.80;100446.00;;;;10426302;28;20215;-78
2022/11/25 01:17:56;;;;;;;1.60;0.70;;;;;8.70;100470.00;;;;10417723;28;20209;-78
2022/11/25 01:22:58;;;;;;;4.60;0.90;;;;;8.70;100468.00;;;;10393836;28;20247;-78
2022/11/25 01:28:02;;;;;;;2.23;1.20;;;;;8.60;100477.00;;;;10437766;28;20205;-78
2022/11/25 01:33:05;;;;;;;3.67;1.00;;;;;8.60;100481.00;;;;10459274;28;20603;-77
2022/11/25 01:38:06;;;;;;;2.60;0.80;;;;;8.60;100480.00;;;;10417567;28;20247;-78
2022/11/25 01:43:14;;;;;;;2.37;0.70;;;;;8.50;100480.00;;;;10430789;28;20644;-78
2022/11/25 01:48:42;;;;;;;3.10;0.73;;;;;8.50;100477.00;;;;10459513;28;20182;-77
2022/11/25 01:53:44;;;;;;;5.83;1.47;;;;;8.50;100440.00;;;;10439377;28;20200;-77
2022/11/25 01:58:47;;;;;;;3.00;0.73;;;;;8.50;100400.00;;;;10458356;28;20660;-77
2022/11/25 02:03:53;;;;;;;1.00;0.80;;;;;8.40;100344.00;;;;10451865;28;20217;-77
2022/11/25 02:09:00;;;;;;;1.77;0.50;;;;;8.40;100333.00;;;;10449095;28;20229;-77
2022/11/25 02:14:02;;;;;;;2.13;0.47;;;;;8.30;100344.00;;;;10449233;28;20259;-77
2022/11/25 02:19:09;;;;;;;1.53;0.53;;;;;8.30;100364.00;;;;10466246;28;20213;-76
2022/11/25 02:24:20;;;;;;;0.50;0.50;;;;;8.30;100345.00;;;;10445707;28;20186;-76
2022/11/25 02:29:22;;;;;;;0.20;0.20;;;;;8.30;100363.00;;;;10449119;28;20202;-77
2022/11/25 02:34:24;;;;;;;0.90;0.50;;;;;8.30;100380.00;;;;10437605;28;20225;-77
2022/11/25 02:39:27;;;;;;;0.90;0.53;;;;;8.30;100394.00;;;;10393580;28;20205;-77
2022/11/25 02:44:31;;;;;;;1.47;0.53;;;;;8.30;100428.00;;;;10423842;28;20197;-77
2022/11/25 02:49:33;;;;;;;1.10;0.63;;;;;8.30;100433.00;;;;10426022;28;20194;-77
2022/11/25 02:54:34;;;;;;;1.03;0.50;;;;;8.20;100441.00;;;;10448180;28;20216;-77
2022/11/25 02:59:37;;;;;;;2.63;0.60;;;;;8.10;100450.00;;;;10445199;28;20212;-76
2022/11/25 03:04:39;;;;;;;3.03;0.57;;;;;8.10;100457.00;;;;10439460;28;20277;-77
2022/11/25 03:09:42;;;;;;;4.37;0.80;;;;;8.00;100471.00;;;;10455111;28;20209;-76
2022/11/25 03:14:47;;;;;;;1.70;0.70;;;;;8.00;100457.00;;;;10428903;28;20190;-77
2022/11/25 03:19:49;;;;;;;3.80;0.80;;;;;7.80;100467.00;;;;10468568;28;20204;-76
2022/11/25 03:24:50;;;;;;;2.57;0.77;;;;;7.80;100478.00;;;;10412200;28;20197;-76
2022/11/25 03:29:54;;;;;;;2.40;1.10;;;;;7.70;100477.00;;;;10406052;28;20277;-76
2022/11/25 03:34:56;;;;;;;10.27;1.33;;;;;7.70;100476.00;;;;10398207;28;20194;-77
2022/11/25 03:39:58;;;;;;;1.87;0.97;;;;;7.60;100496.00;;;;10404659;28;20240;-76
2022/11/25 03:45:01;;;;;;;6.83;1.30;;;;;7.60;100503.00;;;;10416770;28;20185;-76
2022/11/25 03:50:04;;;;;;;1.73;1.10;;;;;7.60;100499.00;;;;10462516;28;20690;-76
2022/11/25 03:55:07;;;;;;;2.83;0.93;;;;;7.70;100512.00;;;;10395013;28;20186;-76
2022/11/25 04:00:11;;;;;;;3.77;1.13;;;;;7.80;100517.00;;;;10426287;28;20648;-76
2022/11/25 04:05:18;;;;;;;3.83;0.90;;;;;7.80;100521.00;;;;10427638;28;20719;-76
2022/11/25 04:10:22;;;;;;;3.63;1.73;;;;;7.70;100516.00;;;;10457452;28;20288;-77
2022/11/25 04:15:24;;;;;;;7.20;1.43;;;;;7.60;100521.00;;;;10421297;28;20725;-76
2022/11/25 04:20:30;;;;;;;5.70;1.37;;;;;7.50;100528.00;;;;10410459;28;20190;-76
2022/11/25 04:25:38;;;;;;;3.93;1.33;;;;;7.40;100528.00;;;;10403744;28;20202;-76
2022/11/25 04:30:45;;;;;;;6.70;1.90;;;;;7.40;100533.00;;;;10427728;28;20194;-76
2022/11/25 04:35:47;;;;;;;3.67;1.57;;;;;7.40;100537.00;;;;10433538;28;20213;-76
2022/11/25 04:40:50;;;;;;;5.10;1.43;;;;;7.50;100551.00;;;;10459878;28;20276;-76
2022/11/25 04:45:55;;;;;;;6.07;1.57;;;;;7.60;100551.00;;;;10427554;28;20217;-77
2022/11/25 04:51:16;;;;;;;6.87;1.67;;;;;7.70;100548.00;;;;10421575;28;20272;-77
2022/11/25 04:56:20;;;;;;;8.30;1.50;;;;;7.80;100561.00;;;;10458895;28;20210;-76
2022/11/25 05:01:24;;;;;;;4.47;2.03;;;;;8.00;100571.00;;;;10427893;28;20247;-76
2022/11/25 05:06:32;;;;;;;7.00;1.77;;;;;8.00;100570.00;;;;10402317;28;20218;-77
2022/11/25 05:11:35;;;;;;;9.00;1.57;;;;;8.00;100564.00;;;;10413714;28;20197;-77
2022/11/25 05:16:37;;;;;;;8.03;2.00;;;;;8.00;100557.00;;;;10441796;28;20223;-77
2022/11/25 05:21:40;;;;;;;7.93;1.93;;;;;8.10;100561.00;;;;10423712;28;20272;-77
2022/11/25 05:26:42;;;;;;;3.00;1.80;;;;;8.10;100572.00;;;;10441606;28;20224;-77
2022/11/25 05:31:44;;;;;;;10.07;2.07;;;;;8.00;100578.00;;;;10414589;28;20281;-77
2022/11/25 05:36:48;;;;;;;6.03;1.83;;;;;7.90;100596.00;;;;10409821;28;20213;-77
2022/11/25 05:41:50;;;;;;;8.07;1.70;;;;;7.80;100608.00;;;;10449405;28;20190;-77
2022/11/25 05:46:52;;;;;;;6.73;1.80;;;;;7.70;100614.00;;;;10419336;28;20552;-77
2022/11/25 05:51:54;;;;;;;5.53;2.27;;;;;7.60;100636.00;;;;10441904;28;20564;-76
2022/11/25 05:56:59;;;;;;;4.90;1.93;;;;;7.60;100649.00;;;;10408517;28;20738;-76
2022/11/25 06:02:01;;;;;;;6.70;2.00;;;;;7.60;100653.00;;;;10438473;28;20239;-76
2022/11/25 06:07:04;;;;;;;4.80;1.90;;;;;7.50;100666.00;;;;10420271;28;20313;-76
2022/11/25 06:12:07;;;;;;;5.73;1.70;;;;;7.50;100649.00;;;;10438782;28;20248;-76
2022/11/25 06:17:15;;;;;;;6.47;1.37;;;;;7.60;100664.00;;;;10442154;28;20217;-76
2022/11/25 06:22:32;;;;;;;12.13;2.60;;;;;7.50;100645.00;;;;10424680;28;20194;-76
2022/11/25 06:27:35;;;;;;;8.93;1.77;;;;;7.50;100645.00;;;;10446378;28;20209;-77
2022/11/25 06:32:57;;;;;;;6.50;1.50;;;;;7.50;100654.00;;;;10431902;28;20186;-77
2022/11/25 06:37:59;;;;;;;10.33;2.60;;;;;7.40;100660.00;;;;10431775;28;20206;-76
2022/11/25 06:43:02;;;;;;;7.80;2.17;;;;;7.40;100676.00;;;;10448057;28;20190;-77
2022/11/25 06:48:04;;;;;;;5.10;2.27;;;;;7.30;100682.00;;;;10428659;28;20189;-76
2022/11/25 06:53:06;;;;;;;6.17;2.17;;;;;7.30;100704.00;;;;10468562;28;20189;-77
2022/11/25 06:58:08;;;;;;;9.83;2.00;;;;;7.20;100717.00;;;;10411636;28;20285;-77
2022/11/25 07:03:31;;;;;;;4.63;1.70;;;;;7.30;100725.00;;;;10429013;28;20278;-76
2022/11/25 07:08:32;;;;;;;11.47;2.57;;;;;7.20;100713.00;;;;10440181;28;20557;-77
2022/11/25 07:13:35;;;;;;;5.27;2.20;;;;;7.30;100732.00;;;;10416052;28;20899;-77
2022/11/25 07:18:38;;;;;;;5.27;2.03;;;;;7.30;100742.00;;;;10439712;28;20198;-77
2022/11/25 07:23:42;;;;;;;8.47;2.43;;;;;7.40;100753.00;;;;10429047;28;20198;-77
2022/11/25 07:28:44;;;;;;;7.87;2.30;;;;;7.50;100753.00;;;;10419728;28;20202;-76
2022/11/25 07:33:47;;;;;;;9.83;2.33;;;;;7.60;100765.00;;;;10427662;28;20205;-77
2022/11/25 07:38:49;;;;;;;11.80;2.53;;;;;7.60;100776.00;;;;10423958;28;20685;-76
2022/11/25 07:43:57;;;;;;;8.53;2.30;;;;;7.70;100787.00;;;;10403734;28;20187;-77
2022/11/25 07:49:02;;;;;;;9.10;2.37;;;;;7.80;100800.00;;;;10419216;28;20189;-77
2022/11/25 07:54:07;;;;;;;14.67;2.67;;;;;7.80;100809.00;;;;10432764;28;20187;-77
2022/11/25 07:59:14;;;;;;;9.30;2.97;;;;;7.90;100818.00;;;;10429027;28;20202;-77
2022/11/25 08:04:17;;;;;;;8.10;2.57;;;;;7.90;100827.00;;;;10411592;28;20195;-77
2022/11/25 08:09:22;;;;;;;11.00;2.90;;;;;8.00;100834.00;;;;10452911;28;20278;-77
2022/11/25 08:14:25;;;;;;;12.33;2.17;;;;;8.10;100849.00;;;;10444006;28;20189;-77
2022/11/25 08:19:27;;;;;;;13.00;2.90;;;;;8.20;100857.00;;;;10433633;28;20222;-77
2022/11/25 08:24:34;;;;;;;12.17;2.73;;;;;8.40;100855.00;;;;10418634;28;20200;-77
2022/11/25 08:29:36;;;;;;;16.50;4.10;;;;;8.50;100857.00;;;;10404089;28;20200;-76
2022/11/25 08:34:39;;;;;;;10.43;3.07;;;;;8.80;100838.00;;;;10424690;28;20291;-77
2022/11/25 08:39:43;;;;;;;12.13;3.70;;;;;9.40;100830.00;;;;10425502;28;20241;-77
2022/11/25 08:44:54;;;;;;;14.87;4.17;;;;;10.00;100822.00;;;;10443075;28;20560;-77
2022/11/25 08:49:57;;;;;;;13.97;4.33;;;;;10.20;100818.00;;;;10441351;28;20620;-77
2022/11/25 08:54:59;;;;;;;10.67;3.83;;;;;10.20;100833.00;;;;10441203;28;20236;-77
2022/11/25 09:00:01;;;;;;;10.20;3.53;;;;;10.10;100847.00;;;;10441066;28;20683;-77
2022/11/25 09:05:03;;;;;;;8.83;3.17;;;;;9.70;100866.00;;;;10408528;28;20577;-76
2022/11/25 09:10:07;;;;;;;12.07;3.63;;;;;9.50;100884.00;;;;10414949;28;20202;-77
2022/11/25 09:15:10;;;;;;;8.07;2.80;;;;;9.30;100903.00;;;;10456918;28;20672;-77
2022/11/25 09:20:12;;;;;;;9.40;4.03;;;;;9.10;100904.00;;;;10440369;28;20716;-77
2022/11/25 09:25:14;;;;;;;8.13;2.50;;;;;9.40;100913.00;;;;10402151;28;1097356;-77
2022/11/25 09:30:16;;;;;;;7.80;2.80;;;;;9.70;100915.00;;;;10441638;28;20247;-77
2022/11/25 09:35:19;;;;;;;9.77;2.90;;;;;9.70;100932.00;;;;10458299;28;20190;-77
2022/11/25 09:40:49;;;;;;;10.40;2.17;;;;;9.90;100936.00;;;;10441490;28;20205;-76
2022/11/25 09:51:52;;;;;;;8.87;2.70;;;;;10.30;100924.00;;;;10441167;28;20192;-76
2022/11/25 09:57:03;;;;;;;7.80;2.47;;;;;10.60;100926.00;;;;10474324;28;20692;-77
2022/11/25 10:02:19;;;;;;;6.20;2.03;;;;;10.80;100934.00;;;;10457892;28;20197;-76
2022/11/25 10:07:32;;;;;;;4.37;1.73;;;;;11.10;100938.00;;;;10424635;28;20221;-77
2022/11/25 10:12:38;;;;;;;8.17;2.50;;;;;11.30;100965.00;;;;10441417;28;20196;-76
2022/11/25 10:17:48;;;;;;;5.27;2.30;;;;;11.50;100976.00;;;;10432216;28;20689;-77
2022/11/25 10:22:54;;;;;;;6.27;2.20;;;;;11.70;100972.00;;;;10450427;28;20186;-77
2022/11/25 10:28:00;;;;;;;8.63;2.30;;;;;11.80;100976.00;;;;10447904;28;20192;-76
2022/11/25 10:33:14;;;;;;;7.83;2.13;;;;;11.90;100987.00;;;;10447685;28;20559;-76
2022/11/25 10:38:30;;;;;;;9.00;1.93;;;;;12.00;100997.00;;;;10457048;28;20259;-77
2022/11/25 10:43:32;;;;;;;6.73;2.07;;;;;12.20;100997.00;;;;10480326;28;20230;-76
2022/11/25 10:48:45;;;;;;;5.57;1.90;;;;;12.30;100986.00;;;;10463585;28;20660;-76
2022/11/25 10:54:14;;;;;;;5.43;1.80;;;;;12.40;101006.00;;;;10447667;28;20701;-76
2022/11/25 10:59:37;;;;;;;5.23;2.03;;;;;12.50;101011.00;;;;10430599;28;20206;-76
2022/11/25 11:05:17;;;;;;;8.73;2.00;;;;;12.60;101027.00;;;;10450544;28;20186;-76
2022/11/25 11:10:24;;;;;;;5.53;1.80;;;;;12.60;101046.00;;;;10389068;28;20217;-76
2022/11/25 11:15:33;;;;;;;7.83;1.90;;;;;12.50;101054.00;;;;10389579;28;20198;-77
2022/11/25 11:20:35;;;;;;;4.60;1.80;;;;;12.50;101066.00;;;;10405333;28;20210;-76
2022/11/25 11:25:40;;;;;;;10.03;2.40;;;;;12.60;101071.00;;;;10421156;28;20194;-76
2022/11/25 11:30:55;;;;;;;6.30;1.80;;;;;12.70;101071.00;;;;10404453;28;20190;-76
2022/11/25 11:36:21;;;;;;;4.57;1.77;;;;;12.70;101082.00;;;;10442816;28;20208;-77
2022/11/25 11:41:38;;;;;;;5.37;2.07;;;;;12.80;101087.00;;;;10444801;28;20225;-76
2022/11/25 11:46:40;;;;;;;9.60;2.20;;;;;12.90;101090.00;;;;10445262;28;20276;-76
2022/11/25 11:52:07;;;;;;;9.60;2.07;;;;;13.10;101096.00;;;;10444843;28;20603;-77
2022/11/25 11:57:23;;;;;;;5.20;1.70;;;;;13.20;101112.00;;;;10461004;28;20243;-76
2022/11/25 12:02:41;;;;;;;8.03;2.70;;;;;13.40;101105.00;;;;10427941;28;20216;-76
2022/11/25 12:07:50;;;;;;;12.02;2.70;;;;;13.50;101099.00;;;;10460538;28;20632;-76
2022/11/25 12:13:14;;;;;;;7.97;2.20;;;;;13.60;101117.00;;;;10460698;28;20546;-76
2022/11/25 12:18:44;;;;;;;4.83;2.20;;;;;13.60;101128.00;;;;10419046;28;20305;-76
2022/11/25 12:24:20;;;;;;;5.33;2.17;;;;;13.60;101137.00;;;;10433307;28;20198;-76
2022/11/25 12:29:43;;;;;;;6.53;1.80;;;;;13.60;101147.00;;;;10383684;28;20613;-76
2022/11/25 12:34:59;;;;;;;10.38;2.92;;;;;13.60;101160.00;;;;10402247;28;20281;-76
2022/11/25 12:40:13;;;;;;;16.30;3.05;;;;;13.60;101177.00;;;;10401914;28;20660;-77
2022/11/25 12:45:20;;;;;;;11.68;2.72;;;;;13.70;101172.00;;;;10401871;28;20236;-77
2022/11/25 12:50:35;;;;;;;9.23;3.00;;;;;13.70;101176.00;;;;10418200;28;20196;-76
2022/11/25 12:55:39;;;;;;;8.53;3.23;;;;;13.30;101176.00;;;;10442838;28;20825;-76
2022/11/25 13:01:02;;;;;;;9.30;3.40;;;;;13.40;101182.00;;;;10442403;28;20205;-76
2022/11/25 13:06:50;;;;;;;12.53;2.50;;;;;13.10;101192.00;;;;10401573;28;20213;-76
2022/11/25 13:11:55;;;;;;;9.27;2.40;;;;;12.90;101206.00;;;;10436041;28;20185;-77
2022/11/25 13:16:58;;;;;;;8.67;2.93;;;;;13.00;101216.00;;;;10458441;28;20267;-76
2022/11/25 13:22:23;;;;;;;12.13;2.60;;;;;12.80;101213.00;;;;10441611;28;20193;-76
2022/11/25 13:27:34;;;;;;;11.77;2.70;;;;;12.80;101226.00;;;;10441518;28;20199;-76
2022/11/25 13:32:37;;;;;;;10.43;2.90;;;;;12.40;101229.00;;;;10442143;28;20288;-76
2022/11/25 13:37:40;;;;;;;10.60;3.33;;;;;12.00;101238.00;;;;10441739;28;20198;-76
2022/11/25 13:42:43;;;;;;;11.27;2.90;;;;;11.50;101238.00;;;;10441406;28;20201;-76
2022/11/25 13:47:48;;;;;;;8.93;2.70;;;;;11.20;101246.00;;;;10425253;28;20197;-76
2022/11/25 13:53:27;;;;;;;12.30;3.33;;;;;11.10;101248.00;;;;10457484;28;20239;-76
2022/11/25 13:58:34;;;;;;;12.63;3.27;;;;;11.40;101262.00;;;;10434973;28;20209;-76
2022/11/25 14:03:43;;;;;;;10.90;3.80;;;;;11.30;101263.00;;;;10465223;28;20235;-76
2022/11/25 14:09:00;;;;;;;12.57;3.33;;;;;11.20;101270.00;;;;10465430;28;20205;-76
2022/11/25 14:14:18;;;;;;;6.30;2.70;;;;;11.30;101276.00;;;;10432182;28;20181;-76
2022/11/25 14:19:30;;;;;;;15.30;3.13;;;;;11.20;101293.00;;;;10447688;28;20205;-76
2022/11/25 14:24:58;;;;;;;8.10;3.37;;;;;11.00;101288.00;;;;10434199;28;20198;-76
2022/11/25 14:30:05;;;;;;;15.20;3.73;;;;;11.00;101306.00;;;;10431711;28;20193;-76
2022/11/25 14:35:17;;;;;;;15.83;3.97;;;;;10.80;101308.00;;;;10415218;28;20213;-76
2022/11/25 14:40:27;;;;;;;11.40;3.33;;;;;10.70;101317.00;;;;10390629;28;20206;-76
2022/11/25 14:45:32;;;;;;;13.17;3.27;;;;;10.60;101325.00;;;;10390705;28;20260;-76
2022/11/25 14:50:35;;;;;;;8.77;3.17;;;;;10.50;101337.00;;;;10392299;28;20186;-76
2022/11/25 14:55:38;;;;;;;16.60;3.80;;;;;10.40;101347.00;;;;10430716;28;20201;-77
2022/11/25 15:00:58;;;;;;;13.13;3.40;;;;;10.40;101364.00;;;;10462797;28;20305;-76
2022/11/25 15:06:03;;;;;;;14.73;4.40;;;;;10.40;101370.00;;;;10421701;28;20278;-76
2022/11/25 15:11:14;;;;;;;14.00;3.70;;;;;10.30;101387.00;;;;10421407;28;20259;-76
2022/11/25 15:16:20;;;;;;;12.13;3.80;;;;;10.10;101394.00;;;;10417011;28;20657;-76
2022/11/25 15:21:36;;;;;;;20.17;4.33;;;;;9.80;101397.00;;;;10443661;28;20755;-76
2022/11/25 15:27:01;;;;;;;11.67;4.50;;;;;9.60;101405.00;;;;10448690;28;20272;-75
2022/11/25 15:32:03;;;;;;;9.53;3.77;;;;;9.50;101416.00;;;;10445874;28;20222;-76
2022/11/25 15:37:07;;;;;;;13.27;3.53;;;;;9.30;101427.00;;;;10420983;28;20584;-77
2022/11/25 15:42:15;;;;;;;7.37;2.93;;;;;9.00;101446.00;;;;10420679;28;20213;-77
2022/11/25 15:47:24;;;;;;;21.07;5.87;;;;;8.90;101444.00;;;;10420119;28;20202;-76
2022/11/25 15:52:30;;;;;;;15.13;4.60;;;;;8.80;101462.00;;;;10420097;28;20186;-76
2022/11/25 15:57:36;;;;;;;16.30;4.90;;;;;8.70;101472.00;;;;10436335;28;20207;-76
2022/11/25 16:02:41;;;;;;;17.30;5.77;;;;;8.50;101485.00;;;;10441891;28;20273;-76
2022/11/25 16:07:49;;;;;;;15.23;5.03;;;;;8.40;101487.00;;;;10422562;28;20222;-76
2022/11/25 16:13:14;;;;;;;9.77;4.93;;;;;8.30;101493.00;;;;10419073;28;20285;-76
2022/11/25 16:18:31;;;;;;;11.87;4.20;;;;;8.20;101509.00;;;;10454362;28;20261;-76
2022/11/25 16:23:46;;;;;;;15.33;4.23;;;;;8.10;101502.00;;;;10442542;28;20564;-76
2022/11/25 16:28:54;;;;;;;10.10;4.70;;;;;8.00;101510.00;;;;10425431;28;20288;-76
2022/11/25 16:34:17;;;;;;;11.00;3.90;;;;;7.90;101519.00;;;;10442235;28;20912;-76
2022/11/25 16:39:19;;;;;;;10.20;3.93;;;;;7.80;101543.00;;;;10438555;28;20770;-76
2022/11/25 16:44:23;;;;;;;11.73;4.17;;;;;7.80;101544.00;;;;10421476;28;20216;-75
2022/11/25 16:49:25;;;;;;;16.20;4.60;;;;;7.70;101557.00;;;;10456264;28;20199;-75
2022/11/25 16:54:27;;;;;;;13.73;5.43;;;;;7.70;101560.00;;;;10412598;28;20209;-76
2022/11/25 16:59:34;;;;;;;13.23;4.97;;;;;7.60;101569.00;;;;10423244;28;20694;-75
2022/11/25 17:04:36;;;;;;;14.50;4.60;;;;;7.70;101575.00;;;;10413150;28;20197;-76
2022/11/25 17:09:39;;;;;;;18.03;5.77;;;;;7.70;101576.00;;;;10436577;28;20218;-75
2022/11/25 17:14:42;;;;;;;16.93;5.17;;;;;7.70;101588.00;;;;10489374;28;20644;-76
2022/11/25 17:19:44;;;;;;;16.13;5.03;;;;;7.60;101593.00;;;;10450373;28;20200;-76
2022/11/25 17:24:47;;;;;;;16.03;6.50;;;;;7.60;101601.00;;;;10416055;28;20190;-76
2022/11/25 17:29:50;;;;;;;15.80;4.53;;;;;7.60;101599.00;;;;10416991;28;20194;-75
2022/11/25 17:34:52;;;;;;;17.50;5.00;;;;;7.50;101608.00;;;;10433013;28;20185;-76
2022/11/25 17:39:54;;;;;;;15.20;5.87;;;;;7.50;101613.00;;;;10424422;28;20217;-76
2022/11/25 17:44:56;;;;;;;15.47;5.50;;;;;7.40;101629.00;;;;10392290;28;20599;-76
2022/11/25 17:49:58;;;;;;;19.60;5.80;;;;;7.30;101631.00;;;;10424402;28;20244;-76
2022/11/25 17:55:00;;;;;;;13.87;6.13;;;;;7.30;101646.00;;;;10448984;28;20185;-76
2022/11/25 18:00:04;;;;;;;16.57;4.20;;;;;7.30;101658.00;;;;10432397;28;20232;-76
2022/11/25 18:05:15;;;;;;;15.53;5.63;;;;;7.20;101659.00;;;;10464712;28;20216;-76
2022/11/25 18:10:20;;;;;;;11.00;5.50;;;;;7.20;101681.00;;;;10449328;28;20212;-76
2022/11/25 18:15:27;;;;;;;13.73;5.97;;;;;7.10;101688.00;;;;10431857;28;20190;-76
2022/11/25 18:20:31;;;;;;;18.83;6.67;;;;;7.10;101690.00;;;;10435705;28;20212;-76
2022/11/25 18:25:33;;;;;;;15.87;6.20;;;;;7.10;101709.00;;;;10409116;28;20221;-75
2022/11/25 18:30:37;;;;;;;17.47;6.37;;;;;7.10;101710.00;;;;10447709;28;20200;-76
2022/11/25 18:35:40;;;;;;;17.27;7.00;;;;;7.10;101724.00;;;;10426458;28;20255;-76
2022/11/25 18:40:43;;;;;;;18.43;7.03;;;;;7.00;101726.00;;;;10405892;28;20213;-76
2022/11/25 18:45:53;;;;;;;18.90;8.27;;;;;6.90;101722.00;;;;10406923;28;20257;-76
2022/11/25 18:50:56;;;;;;;19.77;8.10;;;;;6.80;101740.00;;;;10405672;28;20622;-76
2022/11/25 18:55:58;;;;;;;22.50;8.03;;;;;6.80;101746.00;;;;10422090;28;20193;-76
2022/11/25 19:01:03;;;;;;;19.57;7.60;;;;;6.80;101743.00;;;;10421661;28;20256;-75
2022/11/25 19:06:05;;;;;;;16.07;7.07;;;;;6.70;101748.00;;;;10405259;28;20236;-75
2022/11/25 19:11:18;;;;;;;12.67;6.50;;;;;6.70;101759.00;;;;10405160;28;20186;-76
2022/11/25 19:16:21;;;;;;;16.90;5.73;;;;;6.60;101770.00;;;;10388552;28;20198;-76
2022/11/25 19:21:23;;;;;;;19.13;6.83;;;;;6.60;101771.00;;;;10447011;28;20573;-76
2022/11/25 19:26:35;;;;;;;16.30;6.50;;;;;6.50;101774.00;;;;10428692;28;20263;-75
2022/11/25 19:31:37;;;;;;;17.20;6.63;;;;;6.50;101785.00;;;;10460394;28;20216;-76
2022/11/25 19:36:39;;;;;;;16.40;6.30;;;;;6.40;101791.00;;;;10432004;28;20198;-75
2022/11/25 19:41:41;;;;;;;15.90;7.80;;;;;6.40;101794.00;;;;10403554;28;20238;-75
2022/11/25 19:46:46;;;;;;;14.40;5.67;;;;;6.40;101800.00;;;;10403140;28;20842;-75
2022/11/25 19:52:18;;;;;;;21.30;6.37;;;;;6.30;101812.00;;;;10419944;28;20325;-75
2022/11/25 19:57:22;;;;;;;15.13;6.63;;;;;6.20;101813.00;;;;10418677;28;20274;-75
2022/11/25 20:02:25;;;;;;;13.13;5.97;;;;;6.10;101819.00;;;;10439201;28;20213;-75
2022/11/25 20:07:28;;;;;;;15.63;5.53;;;;;6.10;101828.00;;;;10477154;28;20308;-75
2022/11/25 20:12:30;;;;;;;19.13;6.37;;;;;6.10;101836.00;;;;10460326;28;20185;-75
2022/11/25 20:17:33;;;;;;;17.93;7.20;;;;;6.00;101833.00;;;;10435864;28;20217;-75
2022/11/25 20:22:38;;;;;;;18.80;7.00;;;;;5.90;101834.00;;;;10395687;28;20199;-75
2022/11/25 20:27:40;;;;;;;24.00;7.63;;;;;5.80;101854.00;;;;10420600;28;20220;-75
2022/11/25 20:32:43;;;;;;;22.77;9.07;;;;;5.80;101850.00;;;;10426554;28;20182;-75
2022/11/25 20:37:56;;;;;;;19.80;8.77;;;;;5.80;101860.00;;;;10442559;28;20221;-75
2022/11/25 20:42:59;;;;;;;26.33;8.77;;;;;5.90;101885.00;;;;10442974;28;20880;-75
2022/11/25 20:48:01;;;;;;;22.77;9.17;;;;;5.90;101880.00;;;;10425603;28;20205;-75
2022/11/25 20:53:02;;;;;;;14.40;8.00;;;;;5.90;101881.00;;;;10442145;28;20194;-75
2022/11/25 20:58:29;;;;;;;20.47;8.50;;;;;5.80;101901.00;;;;10426116;28;20202;-75
2022/11/25 21:03:31;;;;;;;13.77;8.03;;;;;5.80;101912.00;;;;10415434;28;20189;-75
2022/11/25 21:08:33;;;;;;;13.77;7.17;;;;;5.80;101917.00;;;;10455540;28;20244;-75
2022/11/25 21:13:35;;;;;;;17.83;7.53;;;;;5.80;101925.00;;;;10399351;28;20213;-75
2022/11/25 21:18:38;;;;;;;26.60;8.67;;;;;5.70;101934.00;;;;10424193;28;20202;-75
2022/11/25 21:23:41;;;;;;;15.83;7.93;;;;;5.60;101942.00;;;;10454986;28;20231;-75
2022/11/25 21:28:45;;;;;;;20.97;7.90;;;;;5.50;101935.00;;;;10458061;28;20200;-75
2022/11/25 21:33:47;;;;;;;20.10;7.17;;;;;5.50;101950.00;;;;10425894;28;20202;-75
2022/11/25 21:38:54;;;;;;;15.30;7.57;;;;;5.50;101955.00;;;;10425008;28;20209;-75
2022/11/25 21:43:56;;;;;;;17.13;7.43;;;;;5.50;101957.00;;;;10457463;28;20186;-75
2022/11/25 21:48:58;;;;;;;23.00;8.03;;;;;5.60;101969.00;;;;10441105;28;20247;-75
2022/11/25 21:54:00;;;;;;;17.67;7.30;;;;;5.60;101979.00;;;;10441036;28;20239;-75
2022/11/25 21:59:05;;;;;;;26.33;7.50;;;;;5.70;101986.00;;;;10457491;28;20228;-75
2022/11/25 22:04:12;;;;;;;18.23;8.07;;;;;5.60;101986.00;;;;10457439;28;20193;-75
2022/11/25 22:09:14;;;;;;;16.83;7.50;;;;;5.50;101973.00;;;;10457064;28;20212;-75
2022/11/25 22:14:22;;;;;;;18.40;7.07;;;;;5.40;101991.00;;;;10440482;28;20278;-75
2022/11/25 22:19:26;;;;;;;17.03;7.30;;;;;5.40;101997.00;;;;10435316;28;20297;-75
2022/11/25 22:24:31;;;;;;;16.93;6.83;;;;;5.30;101994.00;;;;10423616;28;20232;-75
2022/11/25 22:29:34;;;;;;;12.80;6.97;;;;;5.40;101992.00;;;;10406817;28;20683;-75
2022/11/25 22:34:36;;;;;;;20.70;7.17;;;;;5.60;101998.00;;;;10422733;28;20211;-75
2022/11/25 22:39:38;;;;;;;17.57;7.07;;;;;5.60;102010.00;;;;10406761;28;20226;-75
2022/11/25 22:44:46;;;;;;;22.90;6.70;;;;;5.50;102019.00;;;;10390337;28;20194;-75
2022/11/25 22:49:49;;;;;;;20.23;7.00;;;;;5.40;102025.00;;;;10405772;28;20191;-75
2022/11/25 22:54:51;;;;;;;18.47;8.73;;;;;5.30;102038.00;;;;10405791;28;20200;-75
2022/11/25 22:59:52;;;;;;;15.87;6.73;;;;;5.30;102039.00;;;;10405639;28;20253;-75
2022/11/25 23:04:55;;;;;;;16.50;6.37;;;;;5.20;102047.00;;;;10436191;28;20197;-75
2022/11/25 23:09:57;;;;;;;22.43;7.43;;;;;5.20;102046.00;;;;10429762;28;20213;-75
2022/11/25 23:14:59;;;;;;;27.30;7.73;;;;;5.30;102057.00;;;;10462528;28;20190;-75
2022/11/25 23:20:01;;;;;;;15.57;6.73;;;;;5.40;102052.00;;;;10453773;28;20285;-75
2022/11/25 23:25:12;;;;;;;21.87;7.43;;;;;5.40;102057.00;;;;10420804;28;20233;-75
2022/11/25 23:30:19;;;;;;;21.77;6.67;;;;;5.40;102067.00;;;;10403350;28;20186;-75
2022/11/25 23:35:27;;;;;;;18.20;7.13;;;;;5.40;102066.00;;;;10407512;28;20201;-75
2022/11/25 23:40:29;;;;;;;28.63;7.30;;;;;5.30;102078.00;;;;10461559;28;20201;-75
2022/11/25 23:45:31;;;;;;;14.37;6.57;;;;;5.20;102075.00;;;;10461094;28;20190;-75
2022/11/25 23:50:33;;;;;;;21.13;7.17;;;;;5.10;102071.00;;;;10477163;28;20186;-75
2022/11/25 23:55:37;;;;;;;19.83;7.60;;;;;5.10;102076.00;;;;10444209;28;20682;-75
